Time;durP1;ratioP1;P1;durP2;ratioP2;P2;SDS_P1;SDS_P2;PMS_P1;PMS_P2;Temp;Humidity;BMP_temperature;BMP_pressure;BME280_temperature;BME280_humidity;BME280_pressure;Samples;Min_cycle;Max_cycle;Signal;HPM_P1;HPM_P2
2023/10/10 00:01:02;;;;;;;23.17;9.57;;;;;;;;;;5021549;28;20066;-60
2023/10/10 00:03:31;;;;;;;15.68;7.47;;;;;;;;;;5047853;28;20063;-61
2023/10/10 00:05:58;;;;;;;15.43;8.23;;;;;;;;;;5036115;28;20049;-60
2023/10/10 00:08:30;;;;;;;26.58;12.32;;;;;;;;;;5023027;28;20147;-60
2023/10/10 00:10:57;;;;;;;40.55;22.33;;;;;;;;;;5017042;28;20061;-60
2023/10/10 00:13:25;;;;;;;21.02;10.27;;;;;;;;;;5021909;28;20065;-61
2023/10/10 00:15:55;;;;;;;20.90;9.23;;;;;;;;;;5038975;28;20134;-59
2023/10/10 00:18:24;;;;;;;21.13;9.35;;;;;;;;;;5029053;28;20053;-61
2023/10/10 00:21:06;;;;;;;17.55;7.72;;;;;;;;;;5039255;28;20053;-59
2023/10/10 00:23:39;;;;;;;16.23;7.32;;;;;;;;;;5037851;28;20162;-59
2023/10/10 00:26:07;;;;;;;18.73;7.80;;;;;;;;;;5033945;28;20056;-60
2023/10/10 00:28:35;;;;;;;21.60;7.95;;;;;;;;;;5028320;28;20056;-60
2023/10/10 00:31:08;;;;;;;;;;;;;;;;;;5037058;28;20049;-60
2023/10/10 00:33:38;;;;;;;17.15;7.45;;;;;;;;;;5052838;28;19924;-60
2023/10/10 00:36:06;;;;;;;16.52;7.55;;;;;;;;;;5032958;28;20067;-61
2023/10/10 00:38:32;;;;;;;18.80;8.00;;;;;;;;;;5033275;28;20110;-60
2023/10/10 00:41:04;;;;;;;18.67;7.57;;;;;;;;;;5042098;28;20122;-62
2023/10/10 00:43:31;;;;;;;18.42;8.65;;;;;;;;;;5037050;28;20063;-61
2023/10/10 00:45:58;;;;;;;15.68;7.40;;;;;;;;;;5036343;28;20063;-61
2023/10/10 00:48:33;;;;;;;17.55;8.38;;;;;;;;;;5027324;28;20052;-61
2023/10/10 00:51:06;;;;;;;17.67;7.85;;;;;;;;;;5038630;28;20057;-60
2023/10/10 00:53:34;;;;;;;17.38;7.70;;;;;;;;;;5045976;28;20061;-61
2023/10/10 00:56:05;;;;;;;19.92;8.20;;;;;;;;;;5055504;28;20084;-60
2023/10/10 00:58:37;;;;;;;17.58;8.07;;;;;;;;;;5033961;28;20080;-61
2023/10/10 01:01:09;;;;;;;19.65;9.00;;;;;;;;;;5037093;28;20057;-61
2023/10/10 01:03:41;;;;;;;17.95;8.18;;;;;;;;;;5036032;28;20061;-61
2023/10/10 01:06:20;;;;;;;16.58;8.27;;;;;;;;;;5028157;28;20171;-61
2023/10/10 01:08:53;;;;;;;18.73;7.72;;;;;;;;;;5036339;28;20048;-62
2023/10/10 01:11:20;;;;;;;21.05;8.15;;;;;;;;;;5036258;28;20057;-60
2023/10/10 01:13:47;;;;;;;16.52;8.18;;;;;;;;;;5023743;28;20057;-61
2023/10/10 01:16:14;;;;;;;19.08;8.65;;;;;;;;;;5002623;28;20049;-61
2023/10/10 01:18:51;;;;;;;29.85;8.85;;;;;;;;;;5001729;28;20061;-60
2023/10/10 01:21:28;;;;;;;17.20;8.10;;;;;;;;;;5016169;28;20111;-60
2023/10/10 01:23:58;;;;;;;20.17;8.45;;;;;;;;;;5015639;28;20085;-60
2023/10/10 01:26:29;;;;;;;15.77;8.35;;;;;;;;;;5012692;28;20049;-60
2023/10/10 01:28:59;;;;;;;16.80;7.97;;;;;;;;;;5017300;28;20065;-60
2023/10/10 01:31:30;;;;;;;17.35;7.72;;;;;;;;;;5016429;28;20085;-61
2023/10/10 01:34:00;;;;;;;17.45;7.75;;;;;;;;;;5011097;28;20137;-60
2023/10/10 01:36:29;;;;;;;16.48;7.93;;;;;;;;;;4982041;28;20081;-60
2023/10/10 01:39:24;;;;;;;21.67;8.95;;;;;;;;;;5014366;28;20064;-60
2023/10/10 01:41:51;;;;;;;18.42;7.72;;;;;;;;;;5021357;28;20081;-60
2023/10/10 01:44:22;;;;;;;16.80;7.47;;;;;;;;;;5032147;28;20065;-59
2023/10/10 01:46:51;;;;;;;18.35;8.38;;;;;;;;;;5020961;28;20071;-60
2023/10/10 01:49:20;;;;;;;;;;;;;;;;;;5051851;28;20064;-60
2023/10/10 01:51:54;;;;;;;14.95;6.95;;;;;;;;;;5047075;28;19932;-60
2023/10/10 01:54:22;;;;;;;18.58;8.52;;;;;;;;;;5043641;28;20052;-62
2023/10/10 01:56:51;;;;;;;20.98;8.70;;;;;;;;;;5045697;28;20110;-60
2023/10/10 01:59:24;;;;;;;16.70;7.68;;;;;;;;;;5039441;28;20115;-60
2023/10/10 02:01:52;;;;;;;16.85;8.57;;;;;;;;;;5036096;28;20057;-60
2023/10/10 02:04:21;;;;;;;15.68;7.88;;;;;;;;;;5006688;28;20114;-60
2023/10/10 02:06:56;;;;;;;16.40;8.48;;;;;;;;;;5009560;28;20056;-60
2023/10/10 02:09:33;;;;;;;18.92;8.85;;;;;;;;;;5007209;28;20385;-60
2023/10/10 02:12:08;;;;;;;23.55;8.48;;;;;;;;;;5011645;28;20148;-59
2023/10/10 02:14:35;;;;;;;16.67;8.60;;;;;;;;;;5011923;28;20053;-59
2023/10/10 02:17:09;;;;;;;16.48;8.27;;;;;;;;;;5009205;28;20136;-60
2023/10/10 02:19:41;;;;;;;21.17;9.02;;;;;;;;;;4993914;28;20057;-60
2023/10/10 02:22:22;;;;;;;20.40;9.30;;;;;;;;;;5015619;28;20141;-59
2023/10/10 02:24:51;;;;;;;22.17;9.52;;;;;;;;;;5010280;28;20075;-60
2023/10/10 02:27:22;;;;;;;;;;;;;;;;;;5032932;28;20075;-61
2023/10/10 02:29:49;;;;;;;21.38;8.68;;;;;;;;;;5039328;28;19924;-60
2023/10/10 02:32:20;;;;;;;17.77;9.48;;;;;;;;;;5039119;28;20053;-59
2023/10/10 02:34:56;;;;;;;28.50;11.55;;;;;;;;;;5046640;28;20148;-59
2023/10/10 02:37:45;;;;;;;23.33;11.15;;;;;;;;;;5013881;28;20049;-59
2023/10/10 02:40:15;;;;;;;25.13;12.00;;;;;;;;;;5022993;28;20061;-60
2023/10/10 02:42:49;;;;;;;27.90;12.23;;;;;;;;;;5011622;28;20060;-60
2023/10/10 02:45:27;;;;;;;28.33;12.30;;;;;;;;;;4988425;28;20054;-60
2023/10/10 02:47:54;;;;;;;29.42;12.90;;;;;;;;;;5010892;28;20103;-59
2023/10/10 02:53:07;;;;;;;29.40;13.52;;;;;;;;;;5015711;28;20049;-61
2023/10/10 02:55:40;;;;;;;28.55;12.93;;;;;;;;;;5012037;28;20053;-60
2023/10/10 02:58:20;;;;;;;29.10;13.63;;;;;;;;;;5010936;28;20057;-60
2023/10/10 03:00:48;;;;;;;27.27;12.55;;;;;;;;;;5017397;28;20061;-59
2023/10/10 03:03:18;;;;;;;;;;;;;;;;;;5012483;28;20065;-61
2023/10/10 03:05:50;;;;;;;26.10;10.98;;;;;;;;;;5031727;28;19925;-60
2023/10/10 03:08:34;;;;;;;30.45;12.50;;;;;;;;;;5025643;28;20073;-60
2023/10/10 03:11:02;;;;;;;23.45;12.02;;;;;;;;;;5016751;28;20053;-60
2023/10/10 03:13:36;;;;;;;23.90;12.63;;;;;;;;;;5015570;28;20049;-60
2023/10/10 03:19:13;;;;;;;25.40;13.02;;;;;;;;;;5003027;28;20057;-60
2023/10/10 03:21:50;;;;;;;27.90;12.93;;;;;;;;;;5018461;28;20065;-60
2023/10/10 03:24:36;;;;;;;25.77;13.50;;;;;;;;;;4999591;28;20089;-60
2023/10/10 03:27:48;;;;;;;25.17;12.75;;;;;;;;;;5035874;28;20057;-60
2023/10/10 03:30:17;;;;;;;21.60;11.82;;;;;;;;;;5037227;28;20053;-59
2023/10/10 03:32:59;;;;;;;25.10;12.55;;;;;;;;;;5038610;28;20128;-60
2023/10/10 03:35:34;;;;;;;21.70;11.52;;;;;;;;;;5016072;28;20069;-61
2023/10/10 03:38:26;;;;;;;21.27;11.80;;;;;;;;;;5018491;28;20056;-61
2023/10/10 03:41:25;;;;;;;19.42;11.27;;;;;;;;;;5019084;28;20053;-60
2023/10/10 05:25:51;;;;;;;23.08;11.60;;;;;;;;;;5017323;28;20077;-61
2023/10/10 05:28:21;;;;;;;20.10;10.90;;;;;;;;;;5032356;28;20061;-60
2023/10/10 05:30:47;;;;;;;21.75;11.07;;;;;;;;;;5034136;28;20045;-61
2023/10/10 05:33:19;;;;;;;24.98;12.13;;;;;;;;;;5005825;28;20077;-61
2023/10/10 05:35:48;;;;;;;25.27;11.50;;;;;;;;;;4982397;28;20061;-60
2023/10/10 05:38:19;;;;;;;24.65;11.57;;;;;;;;;;4999389;28;20045;-61
2023/10/10 05:40:47;;;;;;;24.50;12.68;;;;;;;;;;5016049;28;20053;-60
2023/10/10 05:43:16;;;;;;;26.00;13.00;;;;;;;;;;5012885;28;20037;-60
2023/10/10 05:45:43;;;;;;;28.65;13.73;;;;;;;;;;5014855;28;20072;-60
2023/10/10 05:48:10;;;;;;;33.22;14.88;;;;;;;;;;5015921;28;20107;-60
2023/10/10 05:50:40;;;;;;;31.77;14.05;;;;;;;;;;5019387;28;20053;-60
2023/10/10 05:53:08;;;;;;;30.45;14.05;;;;;;;;;;5012794;28;20064;-60
2023/10/10 05:55:38;;;;;;;33.80;15.00;;;;;;;;;;5002409;28;20049;-60
2023/10/10 05:58:08;;;;;;;36.30;16.27;;;;;;;;;;5013225;28;20067;-60
2023/10/10 06:00:37;;;;;;;36.80;15.90;;;;;;;;;;5001329;28;20079;-61
2023/10/10 06:03:05;;;;;;;34.33;16.60;;;;;;;;;;5009913;28;20145;-61
2023/10/10 06:05:33;;;;;;;39.30;17.17;;;;;;;;;;5028153;28;20152;-60
2023/10/10 06:07:59;;;;;;;37.42;16.10;;;;;;;;;;5023198;28;20088;-61
2023/10/10 06:10:32;;;;;;;39.80;16.20;;;;;;;;;;5006010;28;20053;-60
2023/10/10 06:13:03;;;;;;;38.40;16.27;;;;;;;;;;5015455;28;20073;-60
2023/10/10 06:15:33;;;;;;;45.15;17.70;;;;;;;;;;5025352;28;20052;-60
2023/10/10 06:18:08;;;;;;;39.33;17.58;;;;;;;;;;5043827;28;20103;-60
2023/10/10 06:20:40;;;;;;;42.72;16.58;;;;;;;;;;5020201;28;20111;-60
2023/10/10 06:23:08;;;;;;;41.15;17.92;;;;;;;;;;5017203;28;20069;-61
2023/10/10 06:25:38;;;;;;;36.93;17.07;;;;;;;;;;5037271;28;20064;-60
2023/10/10 06:28:07;;;;;;;42.58;18.98;;;;;;;;;;5037473;28;20068;-62
2023/10/10 06:30:36;;;;;;;43.03;19.98;;;;;;;;;;5038091;28;20053;-62
2023/10/10 06:33:14;;;;;;;44.38;18.23;;;;;;;;;;5037785;28;20477;-60
2023/10/10 06:35:41;;;;;;;41.05;18.50;;;;;;;;;;5030117;28;20110;-61
2023/10/10 06:38:10;;;;;;;44.22;18.90;;;;;;;;;;5039168;28;20060;-61
2023/10/10 06:40:42;;;;;;;;;;;;;;;;;;5035713;28;20140;-61
2023/10/10 06:43:15;;;;;;;41.00;18.63;;;;;;;;;;5012869;28;19929;-62
2023/10/10 06:45:42;;;;;;;39.80;18.33;;;;;;;;;;5012945;28;20057;-61
2023/10/10 06:48:09;;;;;;;38.40;18.10;;;;;;;;;;5022801;28;20068;-60
2023/10/10 06:50:44;;;;;;;42.38;18.75;;;;;;;;;;5019901;28;20149;-60
2023/10/10 06:53:34;;;;;;;39.72;18.17;;;;;;;;;;5025174;28;20059;-61
2023/10/10 06:56:14;;;;;;;41.58;18.23;;;;;;;;;;4999436;28;20057;-60
2023/10/10 06:58:45;;;;;;;42.38;18.05;;;;;;;;;;5038727;28;20053;-61
2023/10/10 07:01:19;;;;;;;39.75;17.00;;;;;;;;;;5034197;28;20134;-61
2023/10/10 07:03:54;;;;;;;46.72;18.13;;;;;;;;;;5028310;28;20076;-61
2023/10/10 07:06:22;;;;;;;39.70;17.42;;;;;;;;;;4980454;28;20061;-60
2023/10/10 07:09:14;;;;;;;35.78;16.35;;;;;;;;;;5007840;28;20107;-61
2023/10/10 07:11:41;;;;;;;38.55;17.42;;;;;;;;;;5016263;28;20056;-60
2023/10/10 07:14:10;;;;;;;36.05;17.50;;;;;;;;;;5009822;28;20053;-61
2023/10/10 07:16:42;;;;;;;36.28;17.70;;;;;;;;;;4998348;28;20050;-60
2023/10/10 07:19:19;;;;;;;34.05;16.98;;;;;;;;;;4994663;28;20054;-61
2023/10/10 07:21:47;;;;;;;42.05;16.65;;;;;;;;;;5003915;28;20049;-61
2023/10/10 07:24:14;;;;;;;45.72;16.58;;;;;;;;;;5008905;28;20063;-60
2023/10/10 07:26:44;;;;;;;42.80;18.30;;;;;;;;;;5021060;28;20057;-60
2023/10/10 07:32:16;;;;;;;43.67;20.25;;;;;;;;;;5010894;28;20172;-62
2023/10/10 07:34:49;;;;;;;34.42;15.35;;;;;;;;;;5022938;28;20060;-60
2023/10/10 07:37:20;;;;;;;30.75;14.90;;;;;;;;;;5014418;28;20062;-60
2023/10/10 07:40:18;;;;;;;35.28;16.27;;;;;;;;;;5018213;28;20069;-60
2023/10/10 07:42:50;;;;;;;37.28;15.15;;;;;;;;;;5048243;28;20081;-60
2023/10/10 07:45:26;;;;;;;35.72;16.45;;;;;;;;;;5011792;28;20092;-60
2023/10/10 07:50:46;;;;;;;32.00;15.05;;;;;;;;;;4981727;28;20072;-60
2023/10/10 07:53:14;;;;;;;30.70;15.82;;;;;;;;;;5010204;28;20123;-61
2023/10/10 07:55:53;;;;;;;32.17;14.90;;;;;;;;;;5028290;28;20080;-60
2023/10/10 07:58:23;;;;;;;33.38;15.73;;;;;;;;;;5037180;28;20079;-62
2023/10/10 08:00:52;;;;;;;34.72;16.40;;;;;;;;;;5035705;28;20061;-60
2023/10/10 08:03:20;;;;;;;35.17;15.68;;;;;;;;;;5020602;28;20250;-61
2023/10/10 08:05:48;;;;;;;32.90;15.20;;;;;;;;;;5022829;28;20049;-60
2023/10/10 08:08:15;;;;;;;;;;;;;;;;;;5001372;28;20058;-60
2023/10/10 08:10:44;;;;;;;31.50;14.00;;;;;;;;;;5013913;28;19925;-61
2023/10/10 08:13:11;;;;;;;30.92;14.32;;;;;;;;;;5029610;28;20198;-61
2023/10/10 08:15:50;;;;;;;35.10;13.82;;;;;;;;;;5011119;28;20139;-60
2023/10/10 08:18:39;;;;;;;32.25;14.93;;;;;;;;;;5054312;28;20045;-60
2023/10/10 08:21:11;;;;;;;29.63;14.43;;;;;;;;;;5034328;28;20061;-63
2023/10/10 08:23:42;;;;;;;28.20;13.65;;;;;;;;;;5037008;28;20053;-60
2023/10/10 08:26:17;;;;;;;33.25;14.75;;;;;;;;;;5031428;28;20053;-61
2023/10/10 08:28:44;;;;;;;39.92;16.52;;;;;;;;;;5039048;28;20049;-61
2023/10/10 08:31:13;;;;;;;34.15;14.00;;;;;;;;;;5029994;28;20099;-61
2023/10/10 08:33:44;;;;;;;30.27;14.88;;;;;;;;;;5037625;28;20072;-61
2023/10/10 08:36:12;;;;;;;30.15;14.77;;;;;;;;;;5025796;28;20136;-60
2023/10/10 08:38:42;;;;;;;35.35;15.20;;;;;;;;;;5033677;28;20080;-61
2023/10/10 08:41:09;;;;;;;34.42;15.07;;;;;;;;;;5027424;28;20063;-61
2023/10/10 08:43:38;;;;;;;30.27;13.80;;;;;;;;;;5036287;28;20071;-61
2023/10/10 08:46:08;;;;;;;34.15;15.15;;;;;;;;;;5016002;28;20057;-60
2023/10/10 08:48:38;;;;;;;31.00;13.82;;;;;;;;;;5016577;28;20084;-60
2023/10/10 08:51:06;;;;;;;30.10;13.75;;;;;;;;;;5014554;28;20054;-61
2023/10/10 08:53:38;;;;;;;30.80;14.17;;;;;;;;;;5013559;28;20072;-61
2023/10/10 08:56:06;;;;;;;30.52;12.93;;;;;;;;;;5005522;28;20054;-61
2023/10/10 08:58:36;;;;;;;27.58;12.93;;;;;;;;;;5018315;28;20053;-61
2023/10/10 09:01:05;;;;;;;34.70;14.80;;;;;;;;;;5006064;28;20057;-62
2023/10/10 09:03:34;;;;;;;26.30;13.98;;;;;;;;;;5018879;28;20064;-61
2023/10/10 09:06:14;;;;;;;32.70;14.38;;;;;;;;;;5013254;28;20177;-60
2023/10/10 09:08:43;;;;;;;29.65;14.60;;;;;;;;;;5016428;28;20144;-61
2023/10/10 09:11:12;;;;;;;32.92;13.77;;;;;;;;;;5012111;28;20081;-62
2023/10/10 09:13:51;;;;;;;29.88;12.27;;;;;;;;;;5019221;28;20315;-61
2023/10/10 09:16:19;;;;;;;27.17;11.88;;;;;;;;;;5006936;28;20064;-60
2023/10/10 09:18:47;;;;;;;29.30;11.90;;;;;;;;;;5015264;28;20061;-61
2023/10/10 09:21:19;;;;;;;25.08;11.65;;;;;;;;;;5010700;28;20057;-60
2023/10/10 09:24:06;;;;;;;26.95;11.02;;;;;;;;;;5032926;28;20076;-61
2023/10/10 09:26:36;;;;;;;21.45;10.65;;;;;;;;;;5012580;28;20084;-61
2023/10/10 09:29:15;;;;;;;28.13;12.05;;;;;;;;;;5016852;28;20171;-61
2023/10/10 09:31:45;;;;;;;24.08;10.98;;;;;;;;;;5016630;28;20080;-61
2023/10/10 09:34:18;;;;;;;22.77;10.55;;;;;;;;;;5025885;28;20080;-61
2023/10/10 09:36:53;;;;;;;27.38;11.98;;;;;;;;;;5033969;28;20053;-61
2023/10/10 09:39:35;;;;;;;22.70;11.35;;;;;;;;;;5010007;28;20064;-60
2023/10/10 09:42:06;;;;;;;20.58;11.27;;;;;;;;;;4999877;28;20041;-60
2023/10/10 09:44:53;;;;;;;26.88;11.93;;;;;;;;;;4988308;28;20061;-60
2023/10/10 09:47:40;;;;;;;23.85;12.10;;;;;;;;;;5042024;28;20131;-60
2023/10/10 09:52:57;;;;;;;22.90;10.52;;;;;;;;;;5035031;28;20082;-60
2023/10/10 09:55:42;;;;;;;33.13;12.73;;;;;;;;;;5039520;28;20103;-60
2023/10/10 09:58:26;;;;;;;26.27;13.00;;;;;;;;;;5051641;28;20053;-60
2023/10/10 10:01:14;;;;;;;29.38;12.38;;;;;;;;;;5034485;28;20150;-60
2023/10/10 10:03:54;;;;;;;24.65;11.73;;;;;;;;;;5042863;28;20053;-59
2023/10/10 10:06:55;;;;;;;29.77;12.38;;;;;;;;;;5010564;28;20062;-60
2023/10/10 10:09:55;;;;;;;34.33;12.65;;;;;;;;;;4988972;28;20053;-60
2023/10/10 10:12:37;;;;;;;27.95;12.35;;;;;;;;;;5003016;28;20121;-59
2023/10/10 10:15:16;;;;;;;29.50;13.85;;;;;;;;;;5021147;28;20140;-60
2023/10/10 10:17:53;;;;;;;28.65;12.88;;;;;;;;;;5031999;28;20068;-59
2023/10/10 10:20:33;;;;;;;32.88;13.35;;;;;;;;;;5038846;28;20296;-61
2023/10/10 10:23:01;;;;;;;31.25;14.05;;;;;;;;;;5031819;28;20048;-60
2023/10/10 10:25:31;;;;;;;26.83;12.43;;;;;;;;;;5004199;28;21352;-60
2023/10/10 10:28:10;;;;;;;26.65;13.50;;;;;;;;;;5015802;28;20107;-60
2023/10/10 10:30:50;;;;;;;24.45;12.35;;;;;;;;;;5012386;28;20053;-60
2023/10/10 10:33:24;;;;;;;26.13;12.35;;;;;;;;;;5012523;28;20049;-61
2023/10/10 10:36:15;;;;;;;26.20;12.52;;;;;;;;;;5011760;28;20330;-61
2023/10/10 10:39:19;;;;;;;27.50;12.27;;;;;;;;;;5015208;28;20136;-61
2023/10/10 10:41:42;;;;;;;28.42;12.15;;;;;;;;;;5013749;28;20061;-61
2023/10/10 10:44:23;;;;;;;27.25;11.05;;;;;;;;;;5013793;28;20050;-61
2023/10/10 10:46:56;;;;;;;22.70;11.32;;;;;;;;;;5029979;28;20064;-61
2023/10/10 10:49:28;;;;;;;24.73;12.05;;;;;;;;;;5014095;28;21585;-61
2023/10/10 10:52:18;;;;;;;26.58;11.95;;;;;;;;;;5020678;28;20076;-62
2023/10/10 10:55:10;;;;;;;25.27;11.55;;;;;;;;;;5004917;28;20061;-61
2023/10/10 10:57:40;;;;;;;22.95;11.05;;;;;;;;;;4999245;28;20058;-62
2023/10/10 11:00:20;;;;;;;24.25;10.60;;;;;;;;;;5002276;28;20100;-62
2023/10/10 11:02:50;;;;;;;19.73;10.30;;;;;;;;;;5016901;28;20057;-61
2023/10/10 11:05:26;;;;;;;26.58;11.82;;;;;;;;;;4996610;28;20073;-61
2023/10/10 11:08:06;;;;;;;24.05;10.60;;;;;;;;;;5020214;28;20066;-61
2023/10/10 11:10:38;;;;;;;19.92;9.90;;;;;;;;;;5022302;28;20055;-61
2023/10/10 11:13:10;;;;;;;27.77;11.55;;;;;;;;;;5037236;28;20049;-62
2023/10/10 11:15:39;;;;;;;25.38;10.02;;;;;;;;;;5014508;28;20105;-62
2023/10/10 11:18:08;;;;;;;28.30;10.90;;;;;;;;;;5044566;28;20075;-62
2023/10/10 11:20:55;;;;;;;18.77;9.68;;;;;;;;;;5041229;28;20045;-63
2023/10/10 11:23:23;;;;;;;24.83;10.38;;;;;;;;;;5031733;28;20311;-62
2023/10/10 11:26:00;;;;;;;26.45;10.38;;;;;;;;;;5034206;28;20057;-62
2023/10/10 11:28:37;;;;;;;43.58;18.40;;;;;;;;;;5039780;28;20064;-62
2023/10/10 11:31:07;;;;;;;27.20;11.52;;;;;;;;;;5039232;28;20060;-62
2023/10/10 11:33:48;;;;;;;27.85;11.68;;;;;;;;;;5034726;28;20065;-62
2023/10/10 11:36:22;;;;;;;23.00;9.88;;;;;;;;;;5025761;28;20335;-61
2023/10/10 11:38:55;;;;;;;22.65;9.93;;;;;;;;;;5041738;28;20090;-61
2023/10/10 11:41:29;;;;;;;23.48;9.63;;;;;;;;;;5030643;28;20134;-62
2023/10/10 11:44:04;;;;;;;19.13;9.05;;;;;;;;;;5038779;28;20134;-61
2023/10/10 11:46:33;;;;;;;23.73;9.88;;;;;;;;;;4991339;28;20089;-62
2023/10/10 11:49:03;;;;;;;27.40;9.82;;;;;;;;;;5021341;28;20063;-62
2023/10/10 11:51:36;;;;;;;23.48;9.48;;;;;;;;;;5019970;28;20061;-61
2023/10/10 11:54:03;;;;;;;19.55;9.38;;;;;;;;;;5017510;28;20072;-62
2023/10/10 11:56:34;;;;;;;23.67;9.82;;;;;;;;;;5020162;28;20288;-62
2023/10/10 11:59:10;;;;;;;23.60;9.43;;;;;;;;;;5014437;28;20057;-62
2023/10/10 12:01:51;;;;;;;20.55;9.73;;;;;;;;;;5025129;28;20053;-61
2023/10/10 12:04:32;;;;;;;19.65;9.27;;;;;;;;;;5021669;28;20053;-62
2023/10/10 12:07:02;;;;;;;;;;;;;;;;;;5014428;28;20080;-62
2023/10/10 12:09:30;;;;;;;17.50;8.13;;;;;;;;;;5013290;28;19925;-61
2023/10/10 12:12:02;;;;;;;17.67;8.27;;;;;;;;;;5023144;28;20058;-62
2023/10/10 12:14:32;;;;;;;22.50;8.85;;;;;;;;;;5037394;28;20148;-61
2023/10/10 12:17:00;;;;;;;21.15;7.95;;;;;;;;;;5012811;28;20155;-62
2023/10/10 12:19:29;;;;;;;18.58;8.98;;;;;;;;;;5018149;28;20053;-61
2023/10/10 12:22:07;;;;;;;19.85;8.63;;;;;;;;;;5018573;28;20060;-61
2023/10/10 12:24:36;;;;;;;21.83;7.85;;;;;;;;;;5006982;28;20054;-64
2023/10/10 12:27:07;;;;;;;18.77;7.60;;;;;;;;;;5048015;28;20053;-62
2023/10/10 12:29:39;;;;;;;21.73;8.25;;;;;;;;;;5017599;28;20053;-61
2023/10/10 12:32:15;;;;;;;24.30;8.57;;;;;;;;;;5037966;28;20066;-62
2023/10/10 12:34:42;;;;;;;17.42;7.80;;;;;;;;;;5000824;28;20147;-62
2023/10/10 12:37:09;;;;;;;18.75;8.15;;;;;;;;;;5030161;28;20061;-62
2023/10/10 12:39:37;;;;;;;22.88;8.18;;;;;;;;;;5034952;28;20056;-61
2023/10/10 12:42:04;;;;;;;21.50;7.60;;;;;;;;;;5023821;28;20065;-60
2023/10/10 12:44:31;;;;;;;22.63;7.90;;;;;;;;;;5016717;28;20138;-61
2023/10/10 12:47:06;;;;;;;18.45;7.70;;;;;;;;;;5029613;28;20057;-61
2023/10/10 12:49:36;;;;;;;15.65;7.18;;;;;;;;;;5036914;28;20049;-61
2023/10/10 12:52:11;;;;;;;22.55;8.68;;;;;;;;;;5038685;28;20059;-62
2023/10/10 12:54:37;;;;;;;21.42;8.70;;;;;;;;;;5041899;28;20052;-63
2023/10/10 12:57:13;;;;;;;22.40;8.43;;;;;;;;;;5040166;28;20060;-62
2023/10/10 12:59:45;;;;;;;18.77;6.88;;;;;;;;;;5037900;28;20097;-61
2023/10/10 13:02:16;;;;;;;19.98;7.43;;;;;;;;;;5039122;28;20060;-62
2023/10/10 13:04:46;;;;;;;22.15;7.68;;;;;;;;;;5012881;28;20064;-60
2023/10/10 13:07:16;;;;;;;18.05;7.63;;;;;;;;;;5026495;28;20060;-61
2023/10/10 13:09:46;;;;;;;16.65;6.80;;;;;;;;;;5039868;28;20076;-60
2023/10/10 13:12:27;;;;;;;13.60;6.32;;;;;;;;;;5042143;28;20155;-61
2023/10/10 13:15:05;;;;;;;20.95;7.07;;;;;;;;;;5043398;28;20104;-63
2023/10/10 13:17:50;;;;;;;20.25;6.82;;;;;;;;;;5041640;28;20126;-60
2023/10/10 13:20:18;;;;;;;19.52;6.68;;;;;;;;;;5051566;28;20114;-61
2023/10/10 13:22:50;;;;;;;15.52;6.35;;;;;;;;;;5022839;28;20073;-61
2023/10/10 13:25:17;;;;;;;16.35;6.38;;;;;;;;;;5032656;28;20132;-60
2023/10/10 13:27:46;;;;;;;18.45;6.72;;;;;;;;;;5035322;28;20057;-60
2023/10/10 13:30:13;;;;;;;14.70;6.10;;;;;;;;;;5037370;28;20052;-61
2023/10/10 13:32:42;;;;;;;15.80;6.45;;;;;;;;;;5040189;28;20057;-61
2023/10/10 13:35:10;;;;;;;15.93;6.10;;;;;;;;;;5017139;28;20049;-62
2023/10/10 13:37:41;;;;;;;18.02;6.28;;;;;;;;;;5023161;28;20084;-61
2023/10/10 13:40:20;;;;;;;18.30;6.47;;;;;;;;;;5016840;28;20053;-61
2023/10/10 13:42:47;;;;;;;20.15;6.47;;;;;;;;;;5047837;28;20061;-60
2023/10/10 13:45:19;;;;;;;14.40;6.40;;;;;;;;;;5027383;28;20099;-62
2023/10/10 13:47:48;;;;;;;18.23;7.32;;;;;;;;;;5030513;28;20089;-60
2023/10/10 13:52:56;;;;;;;21.45;6.85;;;;;;;;;;5028206;28;20060;-60
2023/10/10 13:55:23;;;;;;;15.30;6.03;;;;;;;;;;5046915;28;20091;-60
2023/10/10 13:57:50;;;;;;;17.02;6.22;;;;;;;;;;5029633;28;20049;-60
2023/10/10 14:00:29;;;;;;;17.42;6.07;;;;;;;;;;5016871;28;20113;-60
2023/10/10 14:03:03;;;;;;;19.48;6.28;;;;;;;;;;5029526;28;20052;-60
2023/10/10 14:05:32;;;;;;;19.23;5.95;;;;;;;;;;5028509;28;20049;-60
2023/10/10 14:08:00;;;;;;;15.88;6.65;;;;;;;;;;5036557;28;20110;-61
2023/10/10 14:10:27;;;;;;;13.95;6.07;;;;;;;;;;5036566;28;20060;-60
2023/10/10 14:12:55;;;;;;;16.30;6.32;;;;;;;;;;5051437;28;20143;-60
2023/10/10 14:15:22;;;;;;;;;;;;;;;;;;5027763;28;20063;-60
2023/10/10 14:17:53;;;;;;;27.48;11.73;;;;;;;;;;5054756;28;19956;-60
2023/10/10 14:20:21;;;;;;;18.35;7.55;;;;;;;;;;5034790;28;20071;-61
2023/10/10 14:22:49;;;;;;;15.68;6.03;;;;;;;;;;5038428;28;20063;-60
2023/10/10 14:25:17;;;;;;;16.00;6.03;;;;;;;;;;5039420;28;20060;-60
2023/10/10 14:27:44;;;;;;;17.60;7.15;;;;;;;;;;5039174;28;20106;-60
2023/10/10 14:30:20;;;;;;;22.17;9.25;;;;;;;;;;5042132;28;20177;-61
2023/10/10 14:32:53;;;;;;;22.63;8.20;;;;;;;;;;5042236;28;20045;-60
2023/10/10 14:35:23;;;;;;;22.05;6.95;;;;;;;;;;5013590;28;20063;-61
2023/10/10 14:37:56;;;;;;;16.13;6.15;;;;;;;;;;5044443;28;20089;-61
2023/10/10 14:40:24;;;;;;;27.85;6.25;;;;;;;;;;5019891;28;20061;-61
2023/10/10 14:42:53;;;;;;;15.90;8.43;;;;;;;;;;5033290;28;20118;-61
2023/10/10 14:45:28;;;;;;;18.65;6.15;;;;;;;;;;5034949;28;20180;-60
2023/10/10 14:47:55;;;;;;;13.48;5.35;;;;;;;;;;5028069;28;20061;-61
2023/10/10 14:50:24;;;;;;;20.23;5.32;;;;;;;;;;5019231;28;20061;-60
2023/10/10 14:52:53;;;;;;;12.75;5.18;;;;;;;;;;5035275;28;20055;-60
2023/10/10 14:55:25;;;;;;;12.80;4.25;;;;;;;;;;5041490;28;20068;-61
2023/10/10 14:57:54;;;;;;;17.30;4.38;;;;;;;;;;5051374;28;20102;-61
2023/10/10 15:00:22;;;;;;;11.82;4.50;;;;;;;;;;5038001;28;20063;-60
2023/10/10 15:02:53;;;;;;;10.55;4.28;;;;;;;;;;5033804;28;20084;-61
2023/10/10 15:05:23;;;;;;;20.50;4.05;;;;;;;;;;4993676;28;20147;-61
2023/10/10 15:07:52;;;;;;;15.15;3.53;;;;;;;;;;5030634;28;20056;-61
2023/10/10 15:10:25;;;;;;;10.98;3.22;;;;;;;;;;5053970;28;20061;-60
2023/10/10 15:12:52;;;;;;;12.18;3.78;;;;;;;;;;5038108;28;20060;-61
2023/10/10 15:15:19;;;;;;;12.27;4.07;;;;;;;;;;5014355;28;20044;-61
2023/10/10 15:17:46;;;;;;;20.80;7.78;;;;;;;;;;5020561;28;20100;-61
2023/10/10 15:20:13;;;;;;;16.48;5.68;;;;;;;;;;5021134;28;20168;-61
2023/10/10 15:22:45;;;;;;;12.15;4.03;;;;;;;;;;5019082;28;20103;-60
2023/10/10 15:25:14;;;;;;;14.32;3.50;;;;;;;;;;5005044;28;20058;-62
2023/10/10 15:27:41;;;;;;;14.70;3.38;;;;;;;;;;5031617;28;20053;-61
2023/10/10 15:30:09;;;;;;;14.85;5.90;;;;;;;;;;5039649;28;20065;-61
2023/10/10 15:32:44;;;;;;;13.60;5.18;;;;;;;;;;5038809;28;20064;-61
2023/10/10 15:35:12;;;;;;;11.00;3.65;;;;;;;;;;5027160;28;20080;-61
2023/10/10 15:37:42;;;;;;;11.38;3.80;;;;;;;;;;5041539;28;20167;-60
2023/10/10 15:40:13;;;;;;;12.48;3.38;;;;;;;;;;5040411;28;20135;-61
2023/10/10 15:42:42;;;;;;;10.88;3.50;;;;;;;;;;5037295;28;20057;-60
2023/10/10 15:45:09;;;;;;;10.70;3.28;;;;;;;;;;5028950;28;20148;-61
2023/10/10 15:47:36;;;;;;;9.75;3.75;;;;;;;;;;5024932;28;20060;-61
2023/10/10 15:50:04;;;;;;;15.77;3.53;;;;;;;;;;5037091;28;20061;-61
2023/10/10 15:52:33;;;;;;;8.98;3.25;;;;;;;;;;5037774;28;20077;-60
2023/10/10 15:55:05;;;;;;;13.98;4.05;;;;;;;;;;5035046;28;20060;-60
2023/10/10 15:57:35;;;;;;;15.40;3.92;;;;;;;;;;5019739;28;20045;-61
2023/10/10 16:00:15;;;;;;;13.75;3.88;;;;;;;;;;5037263;28;20067;-61
2023/10/10 16:02:52;;;;;;;11.52;3.47;;;;;;;;;;5038607;28;20112;-61
2023/10/10 16:05:19;;;;;;;12.13;4.25;;;;;;;;;;5022031;28;20166;-60
2023/10/10 16:07:46;;;;;;;13.13;4.05;;;;;;;;;;5023872;28;20049;-60
2023/10/10 16:10:14;;;;;;;12.02;3.70;;;;;;;;;;5037949;28;20057;-60
2023/10/10 16:12:42;;;;;;;12.43;4.00;;;;;;;;;;5027761;28;20072;-60
2023/10/10 16:15:18;;;;;;;14.93;3.90;;;;;;;;;;5010302;28;20168;-58
2023/10/10 16:17:45;;;;;;;14.35;4.35;;;;;;;;;;5017429;28;20144;-60
2023/10/10 16:20:12;;;;;;;9.93;4.18;;;;;;;;;;5016700;28;20063;-60
2023/10/10 16:22:40;;;;;;;14.45;3.97;;;;;;;;;;5018277;28;20053;-60
2023/10/10 16:25:13;;;;;;;10.63;4.00;;;;;;;;;;4982324;28;20061;-60
2023/10/10 16:27:40;;;;;;;13.32;4.30;;;;;;;;;;5011056;28;20083;-60
2023/10/10 16:30:10;;;;;;;14.65;3.83;;;;;;;;;;5046234;28;20159;-60
2023/10/10 16:32:39;;;;;;;13.20;3.83;;;;;;;;;;5025547;28;20049;-60
2023/10/10 16:35:11;;;;;;;15.98;3.83;;;;;;;;;;5010817;28;20057;-62
2023/10/10 16:37:37;;;;;;;13.00;3.45;;;;;;;;;;5029776;28;20048;-60
2023/10/10 16:40:05;;;;;;;12.90;3.78;;;;;;;;;;5045140;28;20091;-60
2023/10/10 16:42:33;;;;;;;11.60;3.88;;;;;;;;;;5032993;28;20099;-60
2023/10/10 16:45:00;;;;;;;13.98;4.07;;;;;;;;;;5024464;28;20049;-60
2023/10/10 16:47:27;;;;;;;22.00;9.07;;;;;;;;;;5027716;28;20045;-60
2023/10/10 16:49:55;;;;;;;16.08;5.40;;;;;;;;;;5027133;28;20055;-59
2023/10/10 16:52:25;;;;;;;11.57;4.10;;;;;;;;;;5029327;28;20126;-60
2023/10/10 16:54:55;;;;;;;13.52;3.72;;;;;;;;;;5024747;28;20171;-61